createdAt,value
2019-04-26T00:00:53.623Z,8.23
2019-04-26T00:03:26.102Z,8.67
2019-04-26T00:05:56.261Z,7.07
2019-04-26T00:08:26.149Z,8.00
2019-04-26T00:10:58.580Z,8.47
2019-04-26T00:13:43.123Z,7.60
2019-04-26T00:16:18.892Z,8.27
2019-04-26T00:18:49.879Z,7.50
2019-04-26T00:21:23.066Z,7.77
2019-04-26T00:23:54.715Z,8.07
2019-04-26T00:26:27.964Z,8.03
2019-04-26T00:28:59.109Z,8.13
2019-04-26T00:31:30.096Z,8.47
2019-04-26T00:34:02.235Z,8.50
2019-04-26T00:36:32.043Z,8.37
2019-04-26T00:39:02.980Z,7.33
2019-04-26T00:41:34.296Z,10.17
2019-04-26T00:44:06.455Z,9.73
2019-04-26T00:46:38.403Z,8.80
2019-04-26T00:49:12.599Z,8.67
2019-04-26T00:51:44.705Z,8.73
2019-04-26T00:54:15.493Z,10.17
2019-04-26T00:56:46.736Z,8.27
2019-04-26T00:59:18.697Z,8.80
2019-04-26T01:01:51.195Z,8.60
2019-04-26T01:04:21.049Z,8.73
2019-04-26T01:06:53.527Z,8.53
2019-04-26T01:09:23.979Z,8.47
2019-04-26T01:11:54.885Z,7.63
2019-04-26T01:14:27.803Z,7.77
2019-04-26T01:16:57.592Z,8.47
2019-04-26T01:19:29.278Z,8.27
2019-04-26T01:22:02.123Z,7.97
2019-04-26T01:24:34.871Z,8.07
2019-04-26T01:27:07.037Z,8.10
2019-04-26T01:29:38.532Z,7.47
2019-04-26T01:32:14.331Z,9.30
2019-04-26T01:34:47.587Z,7.83
2019-04-26T01:37:18.309Z,8.27
2019-04-26T01:39:53.505Z,7.60
2019-04-26T01:42:26.851Z,8.63
2019-04-26T01:45:04.998Z,8.23
2019-04-26T01:47:35.326Z,9.23
2019-04-26T01:50:08.629Z,9.07
2019-04-26T01:52:39.785Z,9.10
2019-04-26T01:55:13.987Z,8.67
2019-04-26T01:57:44.387Z,7.80
2019-04-26T02:00:21.190Z,8.60
2019-04-26T02:02:56.787Z,7.63
2019-04-26T02:05:28.023Z,7.87
2019-04-26T02:07:59.560Z,7.70
2019-04-26T02:10:30.673Z,7.07
2019-04-26T02:13:04.196Z,7.77
2019-04-26T02:15:36.120Z,8.47
2019-04-26T02:18:06.159Z,7.93
2019-04-26T02:21:09.865Z,8.07
2019-04-26T02:23:44.926Z,7.97
2019-04-26T02:26:34.877Z,7.40
2019-04-26T02:29:19.681Z,7.43
2019-04-26T02:31:56.616Z,6.67
2019-04-26T02:34:29.909Z,7.27
2019-04-26T02:37:02.649Z,7.80
2019-04-26T02:39:43.819Z,7.67
2019-04-26T02:42:34.011Z,7.13
2019-04-26T02:45:24.172Z,7.10
2019-04-26T02:48:14.393Z,7.67
2019-04-26T02:50:52.482Z,7.60
2019-04-26T02:53:53.179Z,7.37
2019-04-26T02:56:28.137Z,6.73
2019-04-26T02:59:02.143Z,7.83
2019-04-26T03:01:34.128Z,7.30
2019-04-26T03:04:03.657Z,7.40
2019-04-26T03:06:37.290Z,8.23
2019-04-26T03:09:12.070Z,7.23
2019-04-26T03:11:47.649Z,7.53
2019-04-26T03:14:24.881Z,8.57
2019-04-26T03:17:17.075Z,7.00
2019-04-26T03:19:52.477Z,7.37
2019-04-26T03:22:36.631Z,7.30
2019-04-26T03:25:29.241Z,7.00
2019-04-26T03:28:09.015Z,6.83
2019-04-26T03:30:54.898Z,6.90
2019-04-26T03:33:29.322Z,7.00
2019-04-26T03:36:18.744Z,7.90
2019-04-26T03:38:58.769Z,7.93
2019-04-26T03:42:06.045Z,8.07
2019-04-26T03:44:42.806Z,9.60
2019-04-26T03:47:19.431Z,10.23
2019-04-26T03:49:55.886Z,10.47
2019-04-26T03:52:58.172Z,11.87
2019-04-26T03:55:36.388Z,9.67
2019-04-26T03:58:17.182Z,8.33
2019-04-26T04:01:04.908Z,10.83
2019-04-26T04:03:55.469Z,13.70
2019-04-26T04:06:31.009Z,11.57
2019-04-26T04:09:09.986Z,9.67
2019-04-26T04:11:49.422Z,8.23
2019-04-26T04:14:32.342Z,7.57
2019-04-26T04:17:07.693Z,8.17
2019-04-26T04:20:05.050Z,9.10
2019-04-26T04:22:45.872Z,7.70
2019-04-26T04:25:27.529Z,8.13
2019-04-26T04:28:03.432Z,7.00
2019-04-26T04:30:49.381Z,6.63
2019-04-26T04:33:25.964Z,6.87
2019-04-26T04:35:59.843Z,6.87
2019-04-26T04:38:42.205Z,7.50
2019-04-26T04:41:21.395Z,6.30
2019-04-26T04:44:07.462Z,6.80
2019-04-26T04:46:49.719Z,7.03
2019-04-26T04:49:52.956Z,7.07
2019-04-26T04:52:50.150Z,5.80
2019-04-26T04:55:24.244Z,6.40
2019-04-26T04:58:14.248Z,5.87
2019-04-26T05:01:21.211Z,6.50
2019-04-26T05:04:01.179Z,5.80
2019-04-26T05:07:11.135Z,5.40
2019-04-26T05:09:56.097Z,5.80
2019-04-26T05:12:46.227Z,5.57
2019-04-26T05:15:40.061Z,6.13
2019-04-26T05:18:22.562Z,5.53
2019-04-26T05:21:12.601Z,5.70
2019-04-26T05:23:53.181Z,5.57
2019-04-26T05:29:50.271Z,5.37
2019-04-26T05:32:50.576Z,4.83
2019-04-26T05:35:43.965Z,6.83
2019-04-26T05:38:26.590Z,7.70
2019-04-26T05:41:29.617Z,6.87
2019-04-26T05:44:22.270Z,4.57
2019-04-26T05:47:19.001Z,5.43
2019-04-26T05:50:09.793Z,5.43
2019-04-26T05:56:25.755Z,4.67
2019-04-26T05:59:23.682Z,4.60
2019-04-26T06:02:32.228Z,4.50
2019-04-26T06:05:25.742Z,4.17
2019-04-26T06:08:13.166Z,4.27
2019-04-26T06:11:04.849Z,4.60
2019-04-26T06:14:07.183Z,4.20
2019-04-26T06:16:52.155Z,4.13
2019-04-26T06:19:33.647Z,5.67
2019-04-26T06:22:25.615Z,5.37
2019-04-26T06:25:23.274Z,4.20
2019-04-26T06:28:01.029Z,5.33
2019-04-26T06:30:45.416Z,4.03
2019-04-26T06:33:25.057Z,4.47
2019-04-26T06:35:59.410Z,4.50
2019-04-26T06:38:46.734Z,4.23
2019-04-26T06:41:35.962Z,4.10
2019-04-26T06:44:18.796Z,4.13
2019-04-26T06:47:17.673Z,6.00
2019-04-26T06:50:11.253Z,5.60
2019-04-26T06:52:56.664Z,4.97
2019-04-26T06:55:31.513Z,4.07
2019-04-26T06:58:12.969Z,5.03
2019-04-26T07:01:06.020Z,5.70
2019-04-26T07:03:50.476Z,5.23
2019-04-26T07:06:34.492Z,5.60
2019-04-26T07:09:03.738Z,3.83
2019-04-26T07:15:02.317Z,4.40
2019-04-26T07:17:53.830Z,4.30
2019-04-26T07:20:30.263Z,3.33
2019-04-26T07:23:40.861Z,3.67
2019-04-26T07:26:19.239Z,4.10
2019-04-26T07:29:13.582Z,4.00
2019-04-26T07:32:00.876Z,3.77
2019-04-26T07:34:56.600Z,4.23
2019-04-26T07:38:01.175Z,3.60
2019-04-26T07:41:01.474Z,3.57
2019-04-26T07:44:10.474Z,4.40
2019-04-26T07:47:04.265Z,3.90
2019-04-26T07:50:14.062Z,3.60
2019-04-26T07:52:51.678Z,3.50
2019-04-26T07:55:24.637Z,5.07
2019-04-26T07:58:15.578Z,5.67
2019-04-26T08:00:55.811Z,6.03
2019-04-26T08:03:40.674Z,5.57
2019-04-26T08:06:17.608Z,3.40
2019-04-26T08:08:52.082Z,6.47
2019-04-26T08:11:26.342Z,5.57
2019-04-26T08:14:13.254Z,4.00
2019-04-26T08:17:05.275Z,4.27
2019-04-26T08:19:39.875Z,5.10
2019-04-26T08:22:22.619Z,5.73
2019-04-26T08:24:51.246Z,5.83
2019-04-26T08:27:27.691Z,5.37
2019-04-26T08:30:10.094Z,3.37
2019-04-26T08:32:40.855Z,3.70
2019-04-26T08:35:18.974Z,3.50
2019-04-26T08:37:52.135Z,3.73
2019-04-26T08:40:31.284Z,5.53
2019-04-26T08:43:40.842Z,7.60
2019-04-26T08:46:20.783Z,4.87
2019-04-26T08:48:54.130Z,5.50
2019-04-26T08:51:25.419Z,4.57
2019-04-26T08:53:59.048Z,5.37
2019-04-26T08:56:36.469Z,3.90
2019-04-26T08:59:27.287Z,4.67
2019-04-26T09:02:02.302Z,4.53
2019-04-26T09:07:36.456Z,4.53
2019-04-26T09:10:11.115Z,5.15
2019-04-26T09:12:44.850Z,4.08
2019-04-26T09:15:22.246Z,5.08
2019-04-26T09:17:53.619Z,3.75
2019-04-26T09:20:29.931Z,3.60
2019-04-26T09:23:07.543Z,4.40
2019-04-26T09:25:42.822Z,3.90
2019-04-26T09:28:15.336Z,4.05
2019-04-26T09:30:47.598Z,4.50
2019-04-26T09:33:23.195Z,3.50
2019-04-26T09:35:56.400Z,3.40
2019-04-26T09:38:28.732Z,4.35
2019-04-26T09:41:00.592Z,3.72
2019-04-26T09:43:32.334Z,3.85
2019-04-26T09:46:15.635Z,3.75
2019-04-26T09:49:03.131Z,3.47
2019-04-26T09:51:34.770Z,3.62
2019-04-26T09:54:06.056Z,3.10
2019-04-26T09:56:39.616Z,3.08
2019-04-26T09:59:11.166Z,3.00
2019-04-26T10:01:43.189Z,3.15
2019-04-26T10:04:14.645Z,2.95
2019-04-26T10:06:45.151Z,2.65
2019-04-26T10:09:21.065Z,3.20
2019-04-26T10:11:50.772Z,3.33
2019-04-26T10:14:38.554Z,3.67
2019-04-26T10:17:11.540Z,3.17
2019-04-26T10:19:50.615Z,2.75
2019-04-26T10:24:56.874Z,2.75
2019-04-26T10:27:27.195Z,2.98
2019-04-26T10:30:07.768Z,2.77
2019-04-26T10:32:34.044Z,2.92
2019-04-26T10:35:06.556Z,2.62
2019-04-26T10:37:43.971Z,3.40
2019-04-26T10:40:16.302Z,3.10
2019-04-26T10:42:46.251Z,2.40
2019-04-26T10:45:18.918Z,2.45
2019-04-26T10:47:52.572Z,2.70
2019-04-26T10:50:28.852Z,2.40
2019-04-26T10:53:05.726Z,3.12
2019-04-26T10:55:50.261Z,2.40
2019-04-26T10:58:20.441Z,2.30
2019-04-26T11:00:56.669Z,1.95
2019-04-26T11:03:29.877Z,3.17
2019-04-26T11:06:01.155Z,2.50
2019-04-26T11:08:34.383Z,2.00
2019-04-26T11:11:06.107Z,2.62
2019-04-26T11:16:12.040Z,2.10
2019-04-26T11:18:44.361Z,1.87
2019-04-26T11:21:16.268Z,2.00
2019-04-26T11:23:50.040Z,1.98
2019-04-26T11:26:21.942Z,2.02
2019-04-26T11:28:55.658Z,2.15
2019-04-26T11:31:27.584Z,1.67
2019-04-26T11:34:05.144Z,2.08
2019-04-26T11:36:37.474Z,2.33
2019-04-26T11:39:13.396Z,1.87
2019-04-26T11:41:44.489Z,2.65
2019-04-26T11:44:15.778Z,2.65
2019-04-26T11:46:46.065Z,1.67
2019-04-26T11:49:17.954Z,2.00
2019-04-26T11:51:51.630Z,1.90
2019-04-26T11:54:24.868Z,2.27
2019-04-26T11:56:58.365Z,1.80
2019-04-26T11:59:31.856Z,2.00
2019-04-26T12:02:02.087Z,1.77
2019-04-26T12:04:53.844Z,1.60
2019-04-26T12:07:28.487Z,2.08
2019-04-26T12:09:59.256Z,1.80
2019-04-26T12:12:28.353Z,2.60
2019-04-26T12:15:08.534Z,1.82
2019-04-26T12:17:37.486Z,1.72
2019-04-26T12:20:14.222Z,1.70
2019-04-26T12:22:48.321Z,1.90
2019-04-26T12:25:20.380Z,1.70
2019-04-26T12:27:55.374Z,1.87
2019-04-26T12:32:58.149Z,1.60
2019-04-26T12:35:30.234Z,2.02
2019-04-26T12:38:03.199Z,1.60
2019-04-26T12:40:34.229Z,1.65
2019-04-26T12:43:07.203Z,1.80
2019-04-26T12:48:26.234Z,1.80
2019-04-26T12:50:56.257Z,1.85
2019-04-26T12:53:31.439Z,1.50
2019-04-26T12:58:51.356Z,2.08
2019-04-26T13:01:22.474Z,1.72
2019-04-26T13:04:12.298Z,1.90
2019-04-26T13:06:53.402Z,1.60
2019-04-26T13:09:26.499Z,1.70
2019-04-26T13:12:17.835Z,1.67
2019-04-26T13:17:37.505Z,2.55
2019-04-26T13:20:11.119Z,2.15
2019-04-26T13:22:46.106Z,2.98
2019-04-26T13:25:26.262Z,2.62
2019-04-26T13:27:50.506Z,2.45
2019-04-26T13:30:32.712Z,2.23
2019-04-26T13:32:58.547Z,2.27
2019-04-26T13:35:30.954Z,2.95
2019-04-26T13:38:01.174Z,2.33
2019-04-26T13:40:33.965Z,2.50
2019-04-26T13:43:05.747Z,2.90
2019-04-26T13:45:51.531Z,2.80
2019-04-26T13:48:43.700Z,2.17
2019-04-26T13:51:23.179Z,2.47
2019-04-26T13:53:54.345Z,2.83
2019-04-26T13:56:26.756Z,2.47
2019-04-26T13:58:58.322Z,2.83
2019-04-26T14:01:30.064Z,3.12
2019-04-26T14:04:07.018Z,3.40
2019-04-26T14:06:35.655Z,3.15
2019-04-26T14:09:11.941Z,2.92
2019-04-26T14:11:44.422Z,3.08
2019-04-26T14:14:19.551Z,3.58
2019-04-26T14:16:55.820Z,7.75
2019-04-26T14:19:27.097Z,5.70
2019-04-26T14:21:58.311Z,10.23
2019-04-26T14:24:30.995Z,6.70
2019-04-26T14:27:10.435Z,10.28
2019-04-26T14:29:42.531Z,3.72
2019-04-26T14:32:12.719Z,6.08
2019-04-26T14:34:45.112Z,5.83
2019-04-26T14:39:50.516Z,4.22
2019-04-26T14:42:32.900Z,7.10
2019-04-26T14:44:57.238Z,3.33
2019-04-26T14:47:30.505Z,3.10
2019-04-26T14:50:13.692Z,4.67
2019-04-26T14:52:36.812Z,3.55
2019-04-26T14:55:07.987Z,3.58
2019-04-26T14:57:37.998Z,3.67
2019-04-26T15:00:09.980Z,3.02
2019-04-26T15:02:47.413Z,3.50
2019-04-26T15:05:17.103Z,3.15
2019-04-26T15:07:53.789Z,3.85
2019-04-26T15:10:26.866Z,3.33
2019-04-26T15:13:12.509Z,4.70
2019-04-26T15:15:34.573Z,3.33
2019-04-26T15:18:06.646Z,3.73
2019-04-26T15:20:37.956Z,3.43
2019-04-26T15:23:09.167Z,4.10
2019-04-26T15:25:41.356Z,4.80
2019-04-26T15:28:14.560Z,3.83
2019-04-26T15:30:49.360Z,3.80
2019-04-26T15:33:22.012Z,4.63
2019-04-26T15:35:55.717Z,4.37
2019-04-26T15:38:26.067Z,3.92
2019-04-26T15:41:05.589Z,4.60
2019-04-26T15:43:46.747Z,7.15
2019-04-26T15:46:21.700Z,4.30
2019-04-26T15:48:59.370Z,5.23
2019-04-26T15:51:32.428Z,5.71
2019-04-26T15:54:03.696Z,5.57
2019-04-26T15:56:36.501Z,5.27
2019-04-26T15:59:07.921Z,4.50
2019-04-26T16:01:45.357Z,5.97
2019-04-26T16:04:17.400Z,5.43
2019-04-26T16:06:48.849Z,5.00
2019-04-26T16:11:55.281Z,5.57
2019-04-26T16:14:31.469Z,6.93
2019-04-26T16:16:58.225Z,6.57
2019-04-26T16:19:29.772Z,7.37
2019-04-26T16:22:02.986Z,8.73
2019-04-26T16:24:37.889Z,9.33
2019-04-26T16:30:02.656Z,8.33
2019-04-26T16:32:58.652Z,9.80
2019-04-26T16:35:28.298Z,9.70
2019-04-26T16:38:00.099Z,9.83
2019-04-26T16:40:32.578Z,8.93
2019-04-26T16:43:13.285Z,8.40
2019-04-26T16:45:44.352Z,7.47
2019-04-26T16:48:22.161Z,7.27
2019-04-26T16:50:53.229Z,7.57
2019-04-26T16:53:43.818Z,6.20
2019-04-26T16:56:03.264Z,8.83
2019-04-26T16:58:38.292Z,12.17
2019-04-26T17:01:15.501Z,9.50
2019-04-26T17:03:46.507Z,7.60
2019-04-26T17:06:14.569Z,6.60
2019-04-26T17:08:49.953Z,6.93
2019-04-26T17:11:19.757Z,6.77
2019-04-26T17:13:54.475Z,9.93
2019-04-26T17:16:25.586Z,24.17
2019-04-26T17:18:59.715Z,40.13
2019-04-26T17:21:30.488Z,28.13
2019-04-26T17:24:18.216Z,12.60
2019-04-26T17:26:50.111Z,9.63
2019-04-26T17:29:22.999Z,12.73
2019-04-26T17:31:56.141Z,19.30
2019-04-26T17:34:30.164Z,21.60
2019-04-26T17:37:02.366Z,17.23
2019-04-26T17:39:34.310Z,17.00
2019-04-26T17:42:07.916Z,18.77
2019-04-26T17:44:41.269Z,23.70
2019-04-26T17:47:12.529Z,24.30
2019-04-26T17:49:45.866Z,21.63
2019-04-26T17:52:17.222Z,13.83
2019-04-26T17:54:49.655Z,14.17
2019-04-26T17:57:31.959Z,14.50
2019-04-26T18:00:06.787Z,14.43
2019-04-26T18:02:40.297Z,13.93
2019-04-26T18:05:03.257Z,16.10
2019-04-26T18:07:41.384Z,21.33
2019-04-26T18:10:06.372Z,19.07
2019-04-26T18:12:40.667Z,20.17
2019-04-26T18:15:11.550Z,22.13
2019-04-26T18:17:46.649Z,21.20
2019-04-26T18:20:37.385Z,26.23
2019-04-26T18:23:18.553Z,43.17
2019-04-26T18:25:49.206Z,49.20
2019-04-26T18:28:23.011Z,51.77
2019-04-26T18:30:54.313Z,39.43
2019-04-26T18:33:26.167Z,29.47
2019-04-26T18:35:57.685Z,24.47
2019-04-26T18:38:29.335Z,24.97
2019-04-26T18:41:03.721Z,21.77
2019-04-26T18:43:35.266Z,20.47
2019-04-26T18:46:12.750Z,19.03
2019-04-26T18:48:48.396Z,23.60
2019-04-26T18:51:23.631Z,24.30
2019-04-26T18:53:56.618Z,38.00
2019-04-26T18:56:26.840Z,37.93
2019-04-26T18:59:03.103Z,41.93
2019-04-26T19:01:34.693Z,42.87
2019-04-26T19:04:24.509Z,38.17
2019-04-26T19:06:56.902Z,24.67
2019-04-26T19:10:00.664Z,21.63
2019-04-26T19:12:26.818Z,15.77
2019-04-26T19:15:04.417Z,14.57
2019-04-26T19:17:36.080Z,17.00
2019-04-26T19:20:24.909Z,13.43
2019-04-26T19:23:07.192Z,13.87
2019-04-26T19:25:41.616Z,10.93
2019-04-26T19:28:12.421Z,11.50
2019-04-26T19:30:49.047Z,12.20
2019-04-26T19:33:18.896Z,12.17
2019-04-26T19:35:50.263Z,10.93
2019-04-26T19:38:25.177Z,11.50
2019-04-26T19:40:58.715Z,10.87
2019-04-26T19:43:34.987Z,11.03
2019-04-26T19:46:07.290Z,11.27
2019-04-26T19:48:56.865Z,11.00
2019-04-26T19:51:34.513Z,9.90
2019-04-26T19:54:07.428Z,9.97
2019-04-26T19:56:48.931Z,9.33
2019-04-26T19:59:23.329Z,9.97
2019-04-26T20:01:57.736Z,11.03
2019-04-26T20:04:30.687Z,10.07
2019-04-26T20:07:05.349Z,10.83
2019-04-26T20:09:37.322Z,8.87
2019-04-26T20:12:08.885Z,9.70
2019-04-26T20:14:47.910Z,9.10
2019-04-26T20:17:19.990Z,10.87
2019-04-26T20:19:53.974Z,10.10
2019-04-26T20:22:27.711Z,12.53
2019-04-26T20:24:57.197Z,16.17
2019-04-26T20:27:27.997Z,13.43
2019-04-26T20:30:02.341Z,11.80
2019-04-26T20:35:14.231Z,8.87
2019-04-26T20:37:45.147Z,9.90
2019-04-26T20:40:22.219Z,7.90
2019-04-26T20:42:51.193Z,7.97
2019-04-26T20:45:23.814Z,7.27
2019-04-26T20:47:57.834Z,8.07
2019-04-26T20:50:35.166Z,8.30
2019-04-26T20:53:03.231Z,9.17
2019-04-26T20:55:34.667Z,9.97
2019-04-26T20:58:08.690Z,8.67
2019-04-26T21:00:53.495Z,8.00
2019-04-26T21:03:23.108Z,8.20
2019-04-26T21:05:46.622Z,7.53
2019-04-26T21:08:19.540Z,8.67
2019-04-26T21:10:52.077Z,7.40
2019-04-26T21:13:30.733Z,8.10
2019-04-26T21:15:58.775Z,8.33
2019-04-26T21:18:33.711Z,9.43
2019-04-26T21:21:05.928Z,10.70
2019-04-26T21:23:39.943Z,9.47
2019-04-26T21:26:32.087Z,9.23
2019-04-26T21:29:20.357Z,9.07
2019-04-26T21:31:47.632Z,8.60
2019-04-26T21:34:22.908Z,8.30
2019-04-26T21:37:17.277Z,9.10
2019-04-26T21:40:00.875Z,9.83
2019-04-26T21:42:33.274Z,10.07
2019-04-26T21:45:03.579Z,9.70
2019-04-26T21:47:35.117Z,8.77
2019-04-26T21:50:07.275Z,8.63
2019-04-26T21:52:39.812Z,6.40
2019-04-26T21:55:13.015Z,6.07
2019-04-26T21:57:46.378Z,6.27
2019-04-26T22:00:36.040Z,5.67
2019-04-26T22:03:07.809Z,4.43
2019-04-26T22:05:45.451Z,4.70
2019-04-26T22:08:24.228Z,4.40
2019-04-26T22:10:51.229Z,4.40
2019-04-26T22:13:23.073Z,4.40
2019-04-26T22:15:57.077Z,3.37
2019-04-26T22:18:35.427Z,4.80
2019-04-26T22:21:21.594Z,3.83
2019-04-26T22:23:53.239Z,3.70
2019-04-26T22:26:28.060Z,4.33
2019-04-26T22:29:00.253Z,4.30
2019-04-26T22:31:33.774Z,4.20
2019-04-26T22:34:08.464Z,5.30
2019-04-26T22:36:43.687Z,4.53
2019-04-26T22:39:39.739Z,4.40
2019-04-26T22:42:11.361Z,4.43
2019-04-26T22:44:47.185Z,4.83
2019-04-26T22:47:33.936Z,5.07
2019-04-26T22:50:04.415Z,11.67
2019-04-26T22:52:37.024Z,5.53
2019-04-26T22:55:10.124Z,5.77
2019-04-26T22:57:41.459Z,6.17
2019-04-26T23:00:13.062Z,6.13
2019-04-26T23:02:47.178Z,5.53
2019-04-26T23:05:20.107Z,5.97
2019-04-26T23:07:54.758Z,6.13
2019-04-26T23:10:31.805Z,5.83
2019-04-26T23:13:08.215Z,5.77
2019-04-26T23:18:26.144Z,5.80
2019-04-26T23:21:11.931Z,7.03
2019-04-26T23:23:42.765Z,6.40
2019-04-26T23:26:23.055Z,6.97
2019-04-26T23:28:56.310Z,7.70
2019-04-26T23:31:33.347Z,8.83
2019-04-26T23:34:05.344Z,8.63
2019-04-26T23:36:37.540Z,9.20
2019-04-26T23:39:12.124Z,9.97
2019-04-26T23:41:44.602Z,8.63
2019-04-26T23:46:50.040Z,9.67
2019-04-26T23:49:25.010Z,10.77
2019-04-26T23:51:58.681Z,11.30
2019-04-26T23:54:36.430Z,12.57
2019-04-26T23:57:07.645Z,13.80
2019-04-26T23:59:38.783Z,13.77
